sensor_id;sensor_type;location;lat;lon;timestamp;pressure;altitude;pressure_sealevel;temperature;humidity
60375;BME280;70244;48.792;9.172;2023-08-06T04:17:22;96676.47;;;24.09;56.04
60375;BME280;70244;48.792;9.172;2023-08-06T04:19:54;96680.38;;;23.99;56.36
60375;BME280;70244;48.792;9.172;2023-08-06T04:23:25;96691.03;;;23.79;56.96
60375;BME280;70244;48.792;9.172;2023-08-06T04:25:56;96687.68;;;23.85;57.01
60375;BME280;70244;48.792;9.172;2023-08-06T04:28:27;96685.21;;;23.82;56.90
60375;BME280;70244;48.792;9.172;2023-08-06T04:30:59;96684.99;;;23.69;57.23
60375;BME280;70244;48.792;9.172;2023-08-06T04:33:28;96681.40;;;23.59;57.54
60375;BME280;70244;48.792;9.172;2023-08-06T04:35:59;96683.23;;;23.68;57.13
60375;BME280;70244;48.792;9.172;2023-08-06T04:38:30;96678.69;;;23.46;57.94
60375;BME280;70244;48.792;9.172;2023-08-06T04:41:02;96680.33;;;23.55;57.75
60375;BME280;70244;48.792;9.172;2023-08-06T04:43:31;96676.66;;;23.53;57.75
60375;BME280;70244;48.792;9.172;2023-08-06T04:46:02;96676.21;;;23.73;57.50
60375;BME280;70244;48.792;9.172;2023-08-06T04:48:32;96671.48;;;24.06;56.59
60375;BME280;70244;48.792;9.172;2023-08-06T04:51:03;96678.18;;;24.10;56.37
60375;BME280;70244;48.792;9.172;2023-08-06T04:53:34;96688.30;;;24.25;55.86
60375;BME280;70244;48.792;9.172;2023-08-06T04:56:04;96687.57;;;24.08;56.17
60375;BME280;70244;48.792;9.172;2023-08-06T04:58:35;96685.70;;;24.02;56.45
60375;BME280;70244;48.792;9.172;2023-08-06T05:01:06;96686.91;;;24.00;56.59
60375;BME280;70244;48.792;9.172;2023-08-06T05:03:37;96687.72;;;24.10;56.09
60375;BME280;70244;48.792;9.172;2023-08-06T05:06:08;96685.48;;;24.05;55.89
60375;BME280;70244;48.792;9.172;2023-08-06T05:08:38;96690.02;;;24.16;55.86
60375;BME280;70244;48.792;9.172;2023-08-06T05:11:09;96687.05;;;24.05;56.03
60375;BME280;70244;48.792;9.172;2023-08-06T05:13:40;96682.55;;;24.26;55.37
60375;BME280;70244;48.792;9.172;2023-08-06T05:16:10;96686.70;;;24.26;55.37
60375;BME280;70244;48.792;9.172;2023-08-06T05:18:41;96684.06;;;24.27;55.28
60375;BME280;70244;48.792;9.172;2023-08-06T05:21:12;96679.46;;;23.95;56.28
60375;BME280;70244;48.792;9.172;2023-08-06T05:23:43;96680.68;;;23.94;56.40
60375;BME280;70244;48.792;9.172;2023-08-06T05:26:13;96682.92;;;24.11;55.85
60375;BME280;70244;48.792;9.172;2023-08-06T05:28:44;96683.25;;;24.03;56.17
60375;BME280;70244;48.792;9.172;2023-08-06T05:31:15;96684.78;;;24.07;56.21
60375;BME280;70244;48.792;9.172;2023-08-06T05:33:45;96684.84;;;24.22;55.67
60375;BME280;70244;48.792;9.172;2023-08-06T05:36:16;96686.82;;;24.54;55.22
60375;BME280;70244;48.792;9.172;2023-08-06T05:38:47;96692.32;;;24.58;55.15
60375;BME280;70244;48.792;9.172;2023-08-06T05:41:18;96701.83;;;27.01;50.24
60375;BME280;70244;48.792;9.172;2023-08-06T05:43:48;96700.61;;;26.40;50.95
60375;BME280;70244;48.792;9.172;2023-08-06T05:46:19;96698.30;;;25.73;52.53
60375;BME280;70244;48.792;9.172;2023-08-06T05:48:49;96696.92;;;25.38;53.12
60375;BME280;70244;48.792;9.172;2023-08-06T05:51:20;96698.42;;;25.11;53.99
60375;BME280;70244;48.792;9.172;2023-08-06T05:53:51;96700.84;;;24.97;54.56
60375;BME280;70244;48.792;9.172;2023-08-06T05:56:21;96698.70;;;24.91;54.79
60375;BME280;70244;48.792;9.172;2023-08-06T05:58:52;96699.01;;;24.89;54.73
60375;BME280;70244;48.792;9.172;2023-08-06T06:01:23;96704.90;;;24.74;54.96
60375;BME280;70244;48.792;9.172;2023-08-06T06:03:53;96705.99;;;24.85;54.84
60375;BME280;70244;48.792;9.172;2023-08-06T06:06:24;96708.65;;;24.80;54.93
60375;BME280;70244;48.792;9.172;2023-08-06T06:08:55;96712.90;;;24.67;55.07
60375;BME280;70244;48.792;9.172;2023-08-06T06:11:25;96712.75;;;24.79;54.79
60375;BME280;70244;48.792;9.172;2023-08-06T06:13:56;96712.44;;;24.53;55.29
60375;BME280;70244;48.792;9.172;2023-08-06T06:16:27;96713.95;;;24.51;55.28
60375;BME280;70244;48.792;9.172;2023-08-06T06:18:58;96712.10;;;24.36;55.37
60375;BME280;70244;48.792;9.172;2023-08-06T06:21:28;96711.03;;;24.27;55.66
60375;BME280;70244;48.792;9.172;2023-08-06T06:23:59;96708.44;;;24.49;55.10
60375;BME280;70244;48.792;9.172;2023-08-06T06:26:30;96711.97;;;24.63;54.86
60375;BME280;70244;48.792;9.172;2023-08-06T06:29:00;96715.10;;;24.60;54.77
60375;BME280;70244;48.792;9.172;2023-08-06T06:31:31;96721.59;;;24.51;55.01
60375;BME280;70244;48.792;9.172;2023-08-06T06:34:02;96723.44;;;24.50;55.03
60375;BME280;70244;48.792;9.172;2023-08-06T06:36:32;96724.56;;;24.67;54.75
60375;BME280;70244;48.792;9.172;2023-08-06T06:39:03;96723.98;;;24.61;54.71
60375;BME280;70244;48.792;9.172;2023-08-06T06:41:34;96725.72;;;24.39;55.23
60375;BME280;70244;48.792;9.172;2023-08-06T06:44:05;96723.43;;;24.66;54.88
60375;BME280;70244;48.792;9.172;2023-08-06T06:46:35;96726.33;;;24.79;54.79
60375;BME280;70244;48.792;9.172;2023-08-06T06:49:06;96726.33;;;24.36;55.50
60375;BME280;70244;48.792;9.172;2023-08-06T06:51:37;96723.72;;;24.32;55.90
60375;BME280;70244;48.792;9.172;2023-08-06T06:54:07;96728.65;;;24.79;54.60
60375;BME280;70244;48.792;9.172;2023-08-06T06:56:38;96730.36;;;24.10;56.64
60375;BME280;70244;48.792;9.172;2023-08-06T06:59:09;96729.75;;;24.30;56.41
60375;BME280;70244;48.792;9.172;2023-08-06T07:01:39;96731.59;;;24.63;55.49
60375;BME280;70244;48.792;9.172;2023-08-06T07:04:10;96729.24;;;24.72;55.23
60375;BME280;70244;48.792;9.172;2023-08-06T07:06:41;96732.52;;;24.66;55.25
60375;BME280;70244;48.792;9.172;2023-08-06T07:09:11;96732.90;;;24.49;55.46
60375;BME280;70244;48.792;9.172;2023-08-06T07:11:42;96735.59;;;24.67;55.35
60375;BME280;70244;48.792;9.172;2023-08-06T07:14:13;96735.27;;;24.56;55.88
60375;BME280;70244;48.792;9.172;2023-08-06T07:16:43;96735.40;;;24.25;57.24
60375;BME280;70244;48.792;9.172;2023-08-06T07:19:14;96738.27;;;24.55;56.46
60375;BME280;70244;48.792;9.172;2023-08-06T07:21:45;96737.37;;;24.70;56.27
60375;BME280;70244;48.792;9.172;2023-08-06T07:24:15;96740.57;;;24.97;55.34
60375;BME280;70244;48.792;9.172;2023-08-06T07:26:46;96743.47;;;24.84;55.42
60375;BME280;70244;48.792;9.172;2023-08-06T07:29:17;96747.64;;;24.59;56.42
60375;BME280;70244;48.792;9.172;2023-08-06T07:31:48;96746.55;;;24.69;56.23
60375;BME280;70244;48.792;9.172;2023-08-06T07:34:18;96747.47;;;24.43;57.05
60375;BME280;70244;48.792;9.172;2023-08-06T07:36:49;96747.06;;;24.68;56.24
60375;BME280;70244;48.792;9.172;2023-08-06T07:39:20;96745.92;;;24.99;55.99
60375;BME280;70244;48.792;9.172;2023-08-06T07:41:50;96743.49;;;24.94;57.01
60375;BME280;70244;48.792;9.172;2023-08-06T07:44:21;96743.13;;;24.70;57.68
60375;BME280;70244;48.792;9.172;2023-08-06T07:46:52;96746.30;;;24.64;57.84
60375;BME280;70244;48.792;9.172;2023-08-06T07:49:23;96749.49;;;25.06;56.60
60375;BME280;70244;48.792;9.172;2023-08-06T07:51:53;96742.48;;;24.93;57.05
60375;BME280;70244;48.792;9.172;2023-08-06T07:54:24;96742.69;;;25.27;56.19
60375;BME280;70244;48.792;9.172;2023-08-06T07:56:55;96740.05;;;24.89;56.54
60375;BME280;70244;48.792;9.172;2023-08-06T07:59:25;96745.75;;;24.84;57.05
60375;BME280;70244;48.792;9.172;2023-08-06T08:01:56;96746.88;;;24.56;57.37
60375;BME280;70244;48.792;9.172;2023-08-06T08:04:27;96748.48;;;24.91;56.37
60375;BME280;70244;48.792;9.172;2023-08-06T08:06:57;96743.71;;;24.55;57.62
60375;BME280;70244;48.792;9.172;2023-08-06T08:09:28;96744.03;;;24.79;56.56
60375;BME280;70244;48.792;9.172;2023-08-06T08:11:59;96741.97;;;25.09;55.54
60375;BME280;70244;48.792;9.172;2023-08-06T08:14:30;96741.46;;;25.36;54.40
60375;BME280;70244;48.792;9.172;2023-08-06T08:17:00;96741.18;;;25.36;54.33
60375;BME280;70244;48.792;9.172;2023-08-06T08:19:31;96742.45;;;25.44;54.29
60375;BME280;70244;48.792;9.172;2023-08-06T08:22:02;96738.09;;;25.50;54.05
60375;BME280;70244;48.792;9.172;2023-08-06T08:24:32;96740.12;;;25.39;54.09
60375;BME280;70244;48.792;9.172;2023-08-06T08:27:03;96735.86;;;25.35;54.33
60375;BME280;70244;48.792;9.172;2023-08-06T08:29:34;96734.28;;;25.42;54.28
60375;BME280;70244;48.792;9.172;2023-08-06T08:32:05;96736.58;;;25.48;53.93
60375;BME280;70244;48.792;9.172;2023-08-06T08:34:35;96738.20;;;25.43;53.93
60375;BME280;70244;48.792;9.172;2023-08-06T08:37:06;96734.84;;;25.41;54.06
60375;BME280;70244;48.792;9.172;2023-08-06T08:39:36;96733.18;;;25.36;54.10
60375;BME280;70244;48.792;9.172;2023-08-06T08:42:09;96732.02;;;25.34;54.00
60375;BME280;70244;48.792;9.172;2023-08-06T08:44:38;96733.30;;;25.42;53.79
60375;BME280;70244;48.792;9.172;2023-08-06T08:47:09;96736.44;;;25.15;54.25
60375;BME280;70244;48.792;9.172;2023-08-06T08:49:40;96740.87;;;25.34;53.94
60375;BME280;70244;48.792;9.172;2023-08-06T08:52:10;96741.48;;;25.43;53.76
60375;BME280;70244;48.792;9.172;2023-08-06T08:54:41;96739.73;;;25.24;53.93
60375;BME280;70244;48.792;9.172;2023-08-06T08:57:11;96739.91;;;25.12;54.20
60375;BME280;70244;48.792;9.172;2023-08-06T08:59:42;96737.37;;;25.30;53.80
60375;BME280;70244;48.792;9.172;2023-08-06T09:02:14;96741.48;;;25.39;53.57
60375;BME280;70244;48.792;9.172;2023-08-06T09:04:44;96739.99;;;25.43;53.56
60375;BME280;70244;48.792;9.172;2023-08-06T09:07:18;96738.69;;;25.44;53.44
60375;BME280;70244;48.792;9.172;2023-08-06T09:09:47;96742.96;;;25.42;53.40
60375;BME280;70244;48.792;9.172;2023-08-06T09:12:16;96740.52;;;25.47;53.40
60375;BME280;70244;48.792;9.172;2023-08-06T09:14:46;96743.35;;;25.51;53.33
60375;BME280;70244;48.792;9.172;2023-08-06T09:17:17;96748.42;;;25.26;53.87
60375;BME280;70244;48.792;9.172;2023-08-06T09:19:47;96750.27;;;25.41;53.44
60375;BME280;70244;48.792;9.172;2023-08-06T09:22:18;96752.27;;;25.29;54.13
60375;BME280;70244;48.792;9.172;2023-08-06T09:24:49;96748.74;;;24.89;55.65
60375;BME280;70244;48.792;9.172;2023-08-06T09:27:19;96745.78;;;25.05;55.59
60375;BME280;70244;48.792;9.172;2023-08-06T09:29:50;96750.52;;;24.79;56.74
60375;BME280;70244;48.792;9.172;2023-08-06T09:32:21;96752.44;;;24.65;57.42
60375;BME280;70244;48.792;9.172;2023-08-06T09:34:56;96753.98;;;25.09;56.28
60375;BME280;70244;48.792;9.172;2023-08-06T09:37:22;96755.56;;;25.09;56.31
60375;BME280;70244;48.792;9.172;2023-08-06T09:39:53;96750.11;;;25.35;55.22
60375;BME280;70244;48.792;9.172;2023-08-06T09:42:23;96756.58;;;25.16;55.37
60375;BME280;70244;48.792;9.172;2023-08-06T09:45:05;96759.58;;;25.21;55.48
60375;BME280;70244;48.792;9.172;2023-08-06T09:47:25;96762.06;;;25.31;55.04
60375;BME280;70244;48.792;9.172;2023-08-06T09:49:56;96756.90;;;25.25;54.94
60375;BME280;70244;48.792;9.172;2023-08-06T09:52:26;96758.01;;;25.29;54.81
60375;BME280;70244;48.792;9.172;2023-08-06T09:54:57;96762.72;;;25.40;54.71
60375;BME280;70244;48.792;9.172;2023-08-06T09:57:28;96761.89;;;25.23;55.23
60375;BME280;70244;48.792;9.172;2023-08-06T09:59:58;96765.53;;;25.42;54.60
60375;BME280;70244;48.792;9.172;2023-08-06T10:02:29;96760.77;;;25.33;54.69
60375;BME280;70244;48.792;9.172;2023-08-06T10:05:00;96766.97;;;25.33;54.62
60375;BME280;70244;48.792;9.172;2023-08-06T10:07:30;96762.84;;;25.44;54.32
60375;BME280;70244;48.792;9.172;2023-08-06T10:10:02;96772.23;;;25.48;54.15
60375;BME280;70244;48.792;9.172;2023-08-06T10:12:33;96778.85;;;25.46;54.17
60375;BME280;70244;48.792;9.172;2023-08-06T10:15:06;96774.98;;;25.33;54.62
60375;BME280;70244;48.792;9.172;2023-08-06T10:17:33;96781.14;;;25.47;54.29
60375;BME280;70244;48.792;9.172;2023-08-06T10:20:05;96784.35;;;25.50;54.24
60375;BME280;70244;48.792;9.172;2023-08-06T10:22:34;96785.40;;;25.55;54.15
60375;BME280;70244;48.792;9.172;2023-08-06T10:25:05;96787.06;;;25.43;54.37
60375;BME280;70244;48.792;9.172;2023-08-06T10:27:40;96790.83;;;25.43;54.21
60375;BME280;70244;48.792;9.172;2023-08-06T10:32:46;96785.29;;;25.68;53.99
60375;BME280;70244;48.792;9.172;2023-08-06T10:37:38;96785.69;;;25.51;54.28
60375;BME280;70244;48.792;9.172;2023-08-06T10:40:09;96788.51;;;25.65;54.05
60375;BME280;70244;48.792;9.172;2023-08-06T10:42:40;96781.39;;;25.63;53.92
60375;BME280;70244;48.792;9.172;2023-08-06T10:45:13;96785.81;;;25.54;54.20
60375;BME280;70244;48.792;9.172;2023-08-06T10:47:41;96783.97;;;25.49;54.54
60375;BME280;70244;48.792;9.172;2023-08-06T10:50:14;96782.46;;;25.20;55.45
60375;BME280;70244;48.792;9.172;2023-08-06T10:52:43;96787.73;;;25.48;55.44
60375;BME280;70244;48.792;9.172;2023-08-06T10:55:13;96794.90;;;26.12;53.99
60375;BME280;70244;48.792;9.172;2023-08-06T10:57:44;96797.94;;;25.02;56.95
60375;BME280;70244;48.792;9.172;2023-08-06T11:00:14;96797.01;;;25.18;56.50
60375;BME280;70244;48.792;9.172;2023-08-06T11:02:47;96798.16;;;24.83;57.15
60375;BME280;70244;48.792;9.172;2023-08-06T11:05:16;96800.70;;;25.46;55.49
60375;BME280;70244;48.792;9.172;2023-08-06T11:07:46;96807.25;;;24.64;58.10
60375;BME280;70244;48.792;9.172;2023-08-06T11:10:17;96807.92;;;25.19;56.58
60375;BME280;70244;48.792;9.172;2023-08-06T11:12:48;96812.58;;;25.26;56.05
60375;BME280;70244;48.792;9.172;2023-08-06T11:15:20;96814.14;;;25.60;54.98
60375;BME280;70244;48.792;9.172;2023-08-06T11:17:50;96807.20;;;25.49;55.19
60375;BME280;70244;48.792;9.172;2023-08-06T11:20:20;96818.84;;;25.60;53.86
60375;BME280;70244;48.792;9.172;2023-08-06T11:22:50;96823.86;;;25.76;53.67
60375;BME280;70244;48.792;9.172;2023-08-06T11:25:21;96823.41;;;25.90;52.89
60375;BME280;70244;48.792;9.172;2023-08-06T11:27:52;96823.51;;;25.75;53.28
60375;BME280;70244;48.792;9.172;2023-08-06T11:30:22;96822.77;;;25.89;52.73
60375;BME280;70244;48.792;9.172;2023-08-06T11:32:53;96833.15;;;25.94;52.34
60375;BME280;70244;48.792;9.172;2023-08-06T11:35:24;96817.11;;;25.90;52.82
60375;BME280;70244;48.792;9.172;2023-08-06T11:37:54;96834.77;;;25.78;52.76
60375;BME280;70244;48.792;9.172;2023-08-06T11:40:25;96832.05;;;25.98;52.16
60375;BME280;70244;48.792;9.172;2023-08-06T11:42:56;96842.68;;;26.03;51.91
60375;BME280;70244;48.792;9.172;2023-08-06T11:45:27;96844.65;;;26.03;52.22
60375;BME280;70244;48.792;9.172;2023-08-06T11:47:57;96848.63;;;25.90;52.20
60375;BME280;70244;48.792;9.172;2023-08-06T11:50:28;96846.48;;;25.96;51.81
60375;BME280;70244;48.792;9.172;2023-08-06T11:53:00;96856.13;;;25.98;51.38
60375;BME280;70244;48.792;9.172;2023-08-06T11:55:29;96851.06;;;25.98;51.33
60375;BME280;70244;48.792;9.172;2023-08-06T11:58:03;96856.84;;;25.92;51.29
60375;BME280;70244;48.792;9.172;2023-08-06T12:00:31;96868.59;;;25.79;51.56
60375;BME280;70244;48.792;9.172;2023-08-06T12:03:01;96865.60;;;25.75;51.71
60375;BME280;70244;48.792;9.172;2023-08-06T12:05:33;96871.46;;;25.81;51.34
60375;BME280;70244;48.792;9.172;2023-08-06T12:08:03;96872.77;;;25.83;50.96
60375;BME280;70244;48.792;9.172;2023-08-06T12:10:33;96873.91;;;25.86;50.69
60375;BME280;70244;48.792;9.172;2023-08-06T12:13:04;96882.14;;;25.76;50.91
60375;BME280;70244;48.792;9.172;2023-08-06T12:15:35;96889.60;;;25.67;51.17
60375;BME280;70244;48.792;9.172;2023-08-06T12:18:05;96889.88;;;25.78;50.68
60375;BME280;70244;48.792;9.172;2023-08-06T12:20:37;96887.16;;;25.71;50.99
60375;BME280;70244;48.792;9.172;2023-08-06T12:23:07;96890.54;;;25.83;50.44
60375;BME280;70244;48.792;9.172;2023-08-06T12:25:37;96894.78;;;25.72;50.70
60375;BME280;70244;48.792;9.172;2023-08-06T12:28:08;96909.47;;;25.74;50.77
60375;BME280;70244;48.792;9.172;2023-08-06T12:30:39;96899.25;;;25.93;50.15
60375;BME280;70244;48.792;9.172;2023-08-06T12:33:09;96895.60;;;25.94;49.95
60375;BME280;70244;48.792;9.172;2023-08-06T12:35:40;96898.54;;;25.94;49.88
60375;BME280;70244;48.792;9.172;2023-08-06T12:38:11;96900.11;;;25.94;49.77
60375;BME280;70244;48.792;9.172;2023-08-06T12:40:41;96895.18;;;25.98;49.70
60375;BME280;70244;48.792;9.172;2023-08-06T12:43:12;96899.28;;;26.01;49.56
60375;BME280;70244;48.792;9.172;2023-08-06T12:45:42;96897.31;;;26.07;49.25
60375;BME280;70244;48.792;9.172;2023-08-06T12:48:13;96889.06;;;26.10;49.28
60375;BME280;70244;48.792;9.172;2023-08-06T12:50:44;96897.76;;;25.62;50.69
60375;BME280;70244;48.792;9.172;2023-08-06T12:53:14;96901.35;;;25.58;50.73
60375;BME280;70244;48.792;9.172;2023-08-06T12:55:45;96908.54;;;25.41;51.32
60375;BME280;70244;48.792;9.172;2023-08-06T12:58:16;96906.68;;;25.86;50.33
60375;BME280;70244;48.792;9.172;2023-08-06T13:00:47;96914.49;;;25.80;50.20
60375;BME280;70244;48.792;9.172;2023-08-06T13:03:17;96928.65;;;25.62;50.72
60375;BME280;70244;48.792;9.172;2023-08-06T13:05:48;96925.11;;;25.89;50.07
60375;BME280;70244;48.792;9.172;2023-08-06T13:08:18;96923.18;;;25.88;50.17
60375;BME280;70244;48.792;9.172;2023-08-06T13:10:49;96927.64;;;26.05;49.64
60375;BME280;70244;48.792;9.172;2023-08-06T13:13:20;96926.64;;;26.11;49.25
60375;BME280;70244;48.792;9.172;2023-08-06T13:15:50;96927.25;;;26.04;49.52
60375;BME280;70244;48.792;9.172;2023-08-06T13:18:21;96929.42;;;25.87;49.99
60375;BME280;70244;48.792;9.172;2023-08-06T13:20:53;96933.89;;;25.93;49.81
60375;BME280;70244;48.792;9.172;2023-08-06T13:23:22;96941.83;;;25.94;49.75
60375;BME280;70244;48.792;9.172;2023-08-06T13:25:53;96940.54;;;25.94;49.73
60375;BME280;70244;48.792;9.172;2023-08-06T13:28:24;96931.78;;;25.98;49.52
60375;BME280;70244;48.792;9.172;2023-08-06T13:30:55;96940.43;;;26.07;49.20
60375;BME280;70244;48.792;9.172;2023-08-06T13:33:25;96937.47;;;26.12;49.04
60375;BME280;70244;48.792;9.172;2023-08-06T13:35:56;96939.95;;;25.87;49.43
60375;BME280;70244;48.792;9.172;2023-08-06T13:38:27;96933.84;;;25.00;51.41
60375;BME280;70244;48.792;9.172;2023-08-06T13:40:57;96944.54;;;25.39;50.44
60375;BME280;70244;48.792;9.172;2023-08-06T13:43:28;96953.21;;;25.02;51.88
60375;BME280;70244;48.792;9.172;2023-08-06T13:45:59;96950.52;;;25.56;50.62
60375;BME280;70244;48.792;9.172;2023-08-06T13:48:29;96957.18;;;24.95;52.17
60375;BME280;70244;48.792;9.172;2023-08-06T13:51:00;96952.86;;;25.57;50.38
60375;BME280;70244;48.792;9.172;2023-08-06T13:53:31;96949.65;;;25.31;50.95
60375;BME280;70244;48.792;9.172;2023-08-06T13:56:02;96946.50;;;25.73;49.78
60375;BME280;70244;48.792;9.172;2023-08-06T13:58:32;96960.07;;;25.34;50.86
60375;BME280;70244;48.792;9.172;2023-08-06T14:01:03;96967.64;;;24.57;53.16
60375;BME280;70244;48.792;9.172;2023-08-06T14:03:33;96967.03;;;25.25;51.42
60375;BME280;70244;48.792;9.172;2023-08-06T14:06:04;96969.89;;;25.28;50.88
60375;BME280;70244;48.792;9.172;2023-08-06T14:08:34;96977.26;;;25.14;51.10
60375;BME280;70244;48.792;9.172;2023-08-06T14:11:05;96987.90;;;25.69;49.04
60375;BME280;70244;48.792;9.172;2023-08-06T14:13:36;96981.83;;;25.90;49.01
60375;BME280;70244;48.792;9.172;2023-08-06T14:16:06;96982.94;;;25.96;48.66
60375;BME280;70244;48.792;9.172;2023-08-06T14:18:37;96984.13;;;25.90;48.68
60375;BME280;70244;48.792;9.172;2023-08-06T14:21:07;96980.26;;;25.91;48.54
60375;BME280;70244;48.792;9.172;2023-08-06T14:23:38;96984.86;;;25.60;49.68
60375;BME280;70244;48.792;9.172;2023-08-06T14:26:09;96981.72;;;25.58;49.64
60375;BME280;70244;48.792;9.172;2023-08-06T14:28:39;96981.44;;;25.86;48.55
60375;BME280;70244;48.792;9.172;2023-08-06T14:31:11;96989.12;;;25.87;48.34
60375;BME280;70244;48.792;9.172;2023-08-06T14:33:41;96992.86;;;25.85;48.48
60375;BME280;70244;48.792;9.172;2023-08-06T14:36:12;96993.18;;;25.98;48.02
60375;BME280;70244;48.792;9.172;2023-08-06T14:38:42;96999.96;;;25.99;48.06
60375;BME280;70244;48.792;9.172;2023-08-06T14:41:13;96997.80;;;25.89;48.32
60375;BME280;70244;48.792;9.172;2023-08-06T14:43:44;97012.19;;;25.89;48.34
60375;BME280;70244;48.792;9.172;2023-08-06T14:46:14;97011.28;;;25.89;48.41
60375;BME280;70244;48.792;9.172;2023-08-06T14:48:45;97036.79;;;25.80;48.40
60375;BME280;70244;48.792;9.172;2023-08-06T14:51:16;97032.89;;;25.77;48.58
60375;BME280;70244;48.792;9.172;2023-08-06T14:53:47;97040.49;;;25.80;48.41
60375;BME280;70244;48.792;9.172;2023-08-06T14:56:17;97050.56;;;25.86;48.35
60375;BME280;70244;48.792;9.172;2023-08-06T14:58:48;97054.23;;;25.85;48.38
60375;BME280;70244;48.792;9.172;2023-08-06T15:01:19;97053.63;;;25.78;48.60
60375;BME280;70244;48.792;9.172;2023-08-06T15:03:49;97061.21;;;25.70;48.88
60375;BME280;70244;48.792;9.172;2023-08-06T15:06:20;97056.36;;;25.63;49.34
60375;BME280;70244;48.792;9.172;2023-08-06T15:08:51;97055.89;;;25.77;49.07
60375;BME280;70244;48.792;9.172;2023-08-06T15:11:21;97055.51;;;25.81;49.11
60375;BME280;70244;48.792;9.172;2023-08-06T15:13:52;97054.93;;;25.92;48.99
60375;BME280;70244;48.792;9.172;2023-08-06T15:16:23;97064.42;;;25.94;49.03
60375;BME280;70244;48.792;9.172;2023-08-06T15:18:53;97064.22;;;25.78;49.47
60375;BME280;70244;48.792;9.172;2023-08-06T15:21:24;97060.57;;;25.62;49.95
60375;BME280;70244;48.792;9.172;2023-08-06T15:23:55;97059.43;;;25.85;49.36
60375;BME280;70244;48.792;9.172;2023-08-06T15:26:26;97059.17;;;25.89;49.23
60375;BME280;70244;48.792;9.172;2023-08-06T15:28:56;97058.40;;;25.84;49.53
60375;BME280;70244;48.792;9.172;2023-08-06T15:31:35;97059.60;;;25.52;50.70
60375;BME280;70244;48.792;9.172;2023-08-06T15:33:57;97058.55;;;25.63;50.61
60375;BME280;70244;48.792;9.172;2023-08-06T15:36:28;97059.25;;;25.74;50.47
60375;BME280;70244;48.792;9.172;2023-08-06T15:38:59;97064.29;;;25.71;51.20
60375;BME280;70244;48.792;9.172;2023-08-06T15:41:29;97069.09;;;25.17;52.96
60375;BME280;70244;48.792;9.172;2023-08-06T15:44:00;97058.71;;;25.69;51.28
60375;BME280;70244;48.792;9.172;2023-08-06T15:46:30;97065.84;;;25.87;50.57
60375;BME280;70244;48.792;9.172;2023-08-06T15:49:01;97058.78;;;26.06;50.07
60375;BME280;70244;48.792;9.172;2023-08-06T15:51:31;97061.19;;;25.97;50.03
60375;BME280;70244;48.792;9.172;2023-08-06T15:54:02;97060.93;;;26.17;49.93
60375;BME280;70244;48.792;9.172;2023-08-06T15:56:33;97071.75;;;25.98;50.38
60375;BME280;70244;48.792;9.172;2023-08-06T16:01:33;97072.44;;;25.99;50.07
60375;BME280;70244;48.792;9.172;2023-08-06T16:04:04;97084.53;;;26.00;49.63
60375;BME280;70244;48.792;9.172;2023-08-06T16:06:34;97078.21;;;25.95;49.53
60375;BME280;70244;48.792;9.172;2023-08-06T16:09:05;97087.45;;;25.88;49.12
60375;BME280;70244;48.792;9.172;2023-08-06T16:11:36;97086.51;;;25.83;49.13
60375;BME280;70244;48.792;9.172;2023-08-06T16:14:07;97094.25;;;25.66;49.66
60375;BME280;70244;48.792;9.172;2023-08-06T16:16:37;97081.86;;;25.77;49.18
60375;BME280;70244;48.792;9.172;2023-08-06T16:19:08;97095.23;;;25.80;48.81
60375;BME280;70244;48.792;9.172;2023-08-06T16:21:38;97100.83;;;25.84;48.57
60375;BME280;70244;48.792;9.172;2023-08-06T16:24:09;97103.79;;;25.80;48.52
60375;BME280;70244;48.792;9.172;2023-08-06T16:26:40;97113.85;;;25.72;48.54
60375;BME280;70244;48.792;9.172;2023-08-06T16:29:10;97122.60;;;25.69;48.53
60375;BME280;70244;48.792;9.172;2023-08-06T16:31:41;97126.10;;;25.62;48.62
60375;BME280;70244;48.792;9.172;2023-08-06T16:34:12;97134.09;;;25.58;48.65
60375;BME280;70244;48.792;9.172;2023-08-06T16:36:43;97130.84;;;25.64;48.42
60375;BME280;70244;48.792;9.172;2023-08-06T16:39:13;97134.80;;;24.92;50.36
60375;BME280;70244;48.792;9.172;2023-08-06T16:41:44;97145.03;;;24.83;50.68
60375;BME280;70244;48.792;9.172;2023-08-06T16:44:15;97143.78;;;25.37;49.48
60375;BME280;70244;48.792;9.172;2023-08-06T16:46:45;97139.65;;;25.38;49.44
60375;BME280;70244;48.792;9.172;2023-08-06T16:49:16;97150.83;;;24.66;51.33
60375;BME280;70244;48.792;9.172;2023-08-06T16:51:46;97149.44;;;25.07;50.44
60375;BME280;70244;48.792;9.172;2023-08-06T16:54:16;97151.36;;;25.20;49.94
60375;BME280;70244;48.792;9.172;2023-08-06T16:56:46;97168.73;;;24.27;51.98
60375;BME280;70244;48.792;9.172;2023-08-06T16:59:16;97166.22;;;23.18;54.30
60375;BME280;70244;48.792;9.172;2023-08-06T17:01:46;97169.25;;;22.03;57.11
60375;BME280;70244;48.792;9.172;2023-08-06T17:04:17;97171.11;;;23.04;55.27
60375;BME280;70244;48.792;9.172;2023-08-06T17:06:48;97169.58;;;23.40;54.91
60375;BME280;70244;48.792;9.172;2023-08-06T17:09:18;97169.77;;;22.70;56.22
60375;BME280;70244;48.792;9.172;2023-08-06T17:11:49;97176.28;;;23.79;53.89
60375;BME280;70244;48.792;9.172;2023-08-06T17:14:20;97180.67;;;23.94;53.70
60375;BME280;70244;48.792;9.172;2023-08-06T17:16:50;97177.63;;;24.40;52.83
60375;BME280;70244;48.792;9.172;2023-08-06T17:19:21;97180.29;;;24.33;52.96
60375;BME280;70244;48.792;9.172;2023-08-06T17:21:52;97180.56;;;24.27;53.83
60375;BME280;70244;48.792;9.172;2023-08-06T17:24:23;97191.51;;;24.25;53.43
60375;BME280;70244;48.792;9.172;2023-08-06T17:26:53;97192.68;;;24.07;53.62
60375;BME280;70244;48.792;9.172;2023-08-06T17:29:25;97193.07;;;23.92;53.73
60375;BME280;70244;48.792;9.172;2023-08-06T17:31:55;97193.37;;;24.31;53.14
60375;BME280;70244;48.792;9.172;2023-08-06T17:34:25;97193.28;;;23.37;54.89
60375;BME280;70244;48.792;9.172;2023-08-06T17:36:56;97197.57;;;23.59;54.31
60375;BME280;70244;48.792;9.172;2023-08-06T17:39:27;97201.80;;;23.61;54.26
60375;BME280;70244;48.792;9.172;2023-08-06T17:41:58;97203.01;;;23.05;55.42